Time;durP1;ratioP1;P1;durP2;ratioP2;P2;SDS_P1;SDS_P2;PMS_P1;PMS_P2;Temp;Humidity;BMP_temperature;BMP_pressure;BME280_temperature;BME280_humidity;BME280_pressure;Samples;Min_cycle;Max_cycle;Signal;HPM_P1;HPM_P2
2022/06/08 00:01:20;;;;;;;;;;;14.40;99.90;;;;;;5074474;28;20278;-76
2022/06/08 00:03:56;;;;;;;;;;;14.30;99.90;;;;;;5072886;28;19971;-75
2022/06/08 00:06:22;;;;;;;;;;;14.30;99.90;;;;;;5065387;28;19912;-77
2022/06/08 00:08:47;;;;;;;;;;;14.30;99.90;;;;;;5072177;28;19912;-77
2022/06/08 00:11:13;;;;;;;;;;;14.30;99.90;;;;;;5067939;28;19916;-77
2022/06/08 00:13:40;;;;;;;;;;;14.30;99.90;;;;;;5074830;28;19916;-76
2022/06/08 00:16:06;;;;;;;;;;;14.30;99.90;;;;;;5055472;28;20322;-77
2022/06/08 00:18:32;;;;;;;;;;;14.20;99.90;;;;;;5072216;28;19978;-76
2022/06/08 00:20:57;;;;;;;;;;;14.20;99.90;;;;;;5065088;28;20011;-76
2022/06/08 00:23:23;;;;;;;;;;;14.20;99.90;;;;;;5074391;28;19981;-75
2022/06/08 00:25:48;;;;;;;;;;;14.30;99.90;;;;;;5073172;28;19951;-77
2022/06/08 00:28:14;;;;;;;;;;;14.20;99.90;;;;;;5074004;28;19952;-77
2022/06/08 00:30:40;;;;;;;;;;;14.30;99.90;;;;;;5065879;28;19924;-75
2022/06/08 00:33:06;;;;;;;;;;;14.30;99.90;;;;;;5065037;28;19912;-76
2022/06/08 00:35:32;;;;;;;;;;;14.30;99.90;;;;;;5082645;28;19912;-76
2022/06/08 00:37:57;;;;;;;;;;;14.30;99.90;;;;;;5073851;28;20480;-77
2022/06/08 00:40:26;;;;;;;;;;;14.30;99.90;;;;;;5073670;28;20267;-77
2022/06/08 00:42:51;;;;;;;;;;;14.30;99.90;;;;;;5062790;28;19935;-76
2022/06/08 00:45:18;;;;;;;;;;;14.30;99.90;;;;;;5065898;28;20365;-75
2022/06/08 00:47:48;;;;;;;;;;;14.30;99.90;;;;;;5076643;28;20031;-76
2022/06/08 00:50:18;;;;;;;;;;;14.30;99.90;;;;;;5080838;28;19913;-75
2022/06/08 00:52:44;;;;;;;;;;;14.30;99.90;;;;;;5065544;28;19962;-75
2022/06/08 00:55:10;;;;;;;;;;;14.40;99.90;;;;;;5077057;28;19951;-76
2022/06/08 00:57:38;;;;;;;;;;;14.40;99.90;;;;;;5070912;28;19960;-76
2022/06/08 01:00:07;;;;;;;;;;;14.40;99.90;;;;;;5071159;28;19916;-77
2022/06/08 01:02:32;;;;;;;;;;;14.50;99.90;;;;;;5053123;28;19955;-76
2022/06/08 01:05:17;;;;;;;;;;;14.50;99.90;;;;;;5063287;28;19951;-75
2022/06/08 01:07:43;;;;;;;;;;;14.50;99.90;;;;;;5065896;28;19913;-74
2022/06/08 01:10:14;;;;;;;;;;;14.60;99.90;;;;;;5057225;28;19956;-76
2022/06/08 01:12:39;;;;;;;;;;;14.60;99.90;;;;;;5076508;28;19912;-75
2022/06/08 01:15:05;;;;;;;;;;;14.60;99.90;;;;;;5077094;28;20258;-75
2022/06/08 01:17:31;;;;;;;;;;;14.70;99.90;;;;;;5077212;28;20299;-76
2022/06/08 01:19:57;;;;;;;;;;;14.70;99.90;;;;;;5077877;28;19908;-75
2022/06/08 01:22:23;;;;;;;;;;;14.70;99.90;;;;;;5063126;28;19919;-75
2022/06/08 01:24:49;;;;;;;;;;;14.80;99.90;;;;;;5057959;28;19920;-76
2022/06/08 01:27:18;;;;;;;;;;;14.80;99.90;;;;;;5055570;28;19978;-76
2022/06/08 01:29:51;;;;;;;;;;;14.80;99.90;;;;;;5079640;28;19978;-75
2022/06/08 01:32:35;;;;;;;;;;;14.80;99.90;;;;;;5076377;28;19912;-75
2022/06/08 01:35:00;;;;;;;;;;;14.80;99.90;;;;;;5077901;28;19917;-75
2022/06/08 01:37:46;;;;;;;;;;;14.90;99.90;;;;;;5074647;28;19919;-75
2022/06/08 01:40:14;;;;;;;;;;;14.90;99.90;;;;;;5058886;28;19913;-75
2022/06/08 01:42:53;;;;;;;;;;;14.90;99.90;;;;;;5029341;28;19916;-76
2022/06/08 01:45:36;;;;;;;;;;;14.90;99.90;;;;;;5085953;28;19977;-73
2022/06/08 01:48:04;;;;;;;;;;;14.90;99.90;;;;;;5078183;28;19912;-76
2022/06/08 01:50:40;;;;;;;;;;;14.90;99.90;;;;;;5052597;28;19922;-76
2022/06/08 01:53:38;;;;;;;;;;;14.90;99.90;;;;;;5071245;28;19913;-77
2022/06/08 01:56:16;;;;;;;;;;;14.90;99.90;;;;;;5001448;28;19921;-75
2022/06/08 01:58:53;;;;;;;;;;;14.90;99.90;;;;;;5009239;28;20256;-75
2022/06/08 02:01:19;;;;;;;;;;;14.80;99.90;;;;;;5014701;28;20233;-76
2022/06/08 02:03:50;;;;;;;;;;;14.90;99.90;;;;;;5000824;28;19969;-76
2022/06/08 02:06:16;;;;;;;;;;;14.80;99.90;;;;;;5029317;28;19913;-75
2022/06/08 02:09:00;;;;;;;;;;;14.80;99.90;;;;;;5022061;28;19920;-75
2022/06/08 02:11:32;;;;;;;;;;;14.80;99.90;;;;;;5022097;28;19917;-75
2022/06/08 02:14:01;;;;;;;;;;;14.70;99.90;;;;;;5024041;28;19910;-76
2022/06/08 02:16:46;;;;;;;;;;;14.60;99.90;;;;;;5031135;28;19917;-76
2022/06/08 02:19:15;;;;;;;;;;;14.60;99.90;;;;;;5015085;28;20339;-76
2022/06/08 02:21:45;;;;;;;;;;;14.50;99.90;;;;;;5018272;28;20232;-76
2022/06/08 02:24:13;;;;;;;;;;;14.40;99.90;;;;;;5015207;28;19921;-76
2022/06/08 02:26:41;;;;;;;;;;;14.40;99.90;;;;;;5028728;28;19949;-76
2022/06/08 02:29:18;;;;;;;;;;;14.30;99.90;;;;;;5015360;28;19909;-75
2022/06/08 02:31:47;;;;;;;;;;;14.30;99.90;;;;;;5039885;28;19913;-76
2022/06/08 02:34:28;;;;;;;;;;;14.30;99.90;;;;;;5051142;28;19912;-75
2022/06/08 02:37:14;;;;;;;;;;;14.20;99.90;;;;;;5037170;28;19936;-75
2022/06/08 02:39:49;;;;;;;;;;;14.20;99.90;;;;;;5044663;28;19936;-76
2022/06/08 02:42:19;;;;;;;;;;;14.10;99.90;;;;;;5056330;28;19981;-76
2022/06/08 02:44:46;;;;;;;;;;;14.10;99.90;;;;;;5058349;28;19913;-76
2022/06/08 02:47:19;;;;;;;;;;;14.00;99.90;;;;;;5050953;28;19913;-76
2022/06/08 02:49:44;;;;;;;;;;;14.10;99.90;;;;;;5055766;28;19912;-76
2022/06/08 02:52:17;;;;;;;;;;;14.00;99.90;;;;;;5037920;28;19919;-76
2022/06/08 02:54:43;;;;;;;;;;;14.00;99.90;;;;;;5054155;28;20484;-76
2022/06/08 02:57:19;;;;;;;;;;;14.00;99.90;;;;;;5073028;28;19960;-76
2022/06/08 02:59:54;;;;;;;;;;;13.90;99.90;;;;;;5070077;28;19919;-76
2022/06/08 03:02:22;;;;;;;;;;;13.90;99.90;;;;;;5077698;28;19912;-77
2022/06/08 03:05:02;;;;;;;;;;;13.80;99.90;;;;;;5067194;28;19924;-75
2022/06/08 03:07:33;;;;;;;;;;;13.80;99.90;;;;;;5072099;28;20303;-75
2022/06/08 03:10:02;;;;;;;;;;;13.80;99.90;;;;;;5066028;28;19909;-77
2022/06/08 03:12:32;;;;;;;;;;;13.80;99.90;;;;;;5072585;28;20362;-76
2022/06/08 03:14:59;;;;;;;;;;;13.80;99.90;;;;;;5041645;28;20333;-74
2022/06/08 03:17:27;;;;;;;;;;;13.80;99.90;;;;;;5089777;28;19997;-77
2022/06/08 03:19:53;;;;;;;;;;;13.80;99.90;;;;;;5078501;28;20361;-76
2022/06/08 03:22:19;;;;;;;;;;;13.80;99.90;;;;;;5074124;28;19938;-74
2022/06/08 03:24:45;;;;;;;;;;;13.80;99.90;;;;;;5059433;28;20311;-74
2022/06/08 03:27:11;;;;;;;;;;;13.70;99.90;;;;;;5065910;28;20007;-74
2022/06/08 03:29:37;;;;;;;;;;;13.80;99.90;;;;;;5078879;28;19908;-76
2022/06/08 03:32:03;;;;;;;;;;;13.80;99.90;;;;;;5067289;28;20427;-74
2022/06/08 03:34:29;;;;;;;;;;;13.80;99.90;;;;;;5073948;28;19944;-73
2022/06/08 03:36:55;;;;;;;;;;;13.80;99.90;;;;;;5060857;28;19921;-73
2022/06/08 03:39:21;;;;;;;;;;;13.80;99.90;;;;;;5075652;28;19974;-75
2022/06/08 03:41:46;;;;;;;;;;;13.90;99.90;;;;;;5072470;28;19913;-73
2022/06/08 03:44:12;;;;;;;;;;;13.90;99.90;;;;;;5012668;28;20003;-74
2022/06/08 03:46:40;;;;;;;;;;;14.00;99.90;;;;;;5064365;28;19920;-73
2022/06/08 03:49:06;;;;;;;;;;;14.00;99.90;;;;;;5056493;28;20211;-74
2022/06/08 03:51:31;;;;;;;;;;;14.10;99.90;;;;;;5054126;28;19920;-74
2022/06/08 03:54:01;;;;;;;;;;;14.10;99.90;;;;;;5064064;28;19912;-73
2022/06/08 03:56:28;;;;;;;;;;;14.10;99.90;;;;;;5052998;28;20231;-74
2022/06/08 03:58:55;;;;;;;;;;;14.20;99.90;;;;;;5081596;28;20223;-73
2022/06/08 04:01:21;;;;;;;;;;;14.20;99.90;;;;;;5095850;28;19929;-73
2022/06/08 04:03:50;;;;;;;;;;;14.30;99.90;;;;;;5072496;28;20008;-73
2022/06/08 04:06:16;;;;;;;;;;;14.40;99.90;;;;;;5057610;28;19913;-73
2022/06/08 04:08:42;;;;;;;;;;;14.40;99.90;;;;;;5077267;28;19908;-73
2022/06/08 04:11:07;;;;;;;;;;;14.50;99.90;;;;;;5074913;28;19924;-73
2022/06/08 04:13:33;;;;;;;;;;;14.50;99.90;;;;;;5084052;28;19912;-72
2022/06/08 04:16:01;;;;;;;;;;;14.60;99.90;;;;;;5072854;28;20263;-74
2022/06/08 04:18:27;;;;;;;;;;;14.70;99.90;;;;;;5072193;28;20213;-74
2022/06/08 04:20:54;;;;;;;;;;;14.80;99.90;;;;;;5062598;28;19927;-74
2022/06/08 04:23:21;;;;;;;;;;;14.80;99.90;;;;;;5085474;28;19950;-74
2022/06/08 04:25:47;;;;;;;;;;;14.80;99.90;;;;;;5070080;28;19912;-73
2022/06/08 04:28:37;;;;;;;;;;;14.80;99.90;;;;;;5050148;28;19919;-73
2022/06/08 04:31:03;;;;;;;;;;;14.80;99.90;;;;;;5050501;28;20369;-73
2022/06/08 04:33:29;;;;;;;;;;;14.90;99.90;;;;;;5055896;28;19912;-73
2022/06/08 04:35:54;;;;;;;;;;;14.90;99.90;;;;;;5088115;28;19995;-73
2022/06/08 04:38:20;;;;;;;;;;;14.90;99.90;;;;;;5074332;28;19923;-75
2022/06/08 04:40:46;;;;;;;;;;;15.00;99.90;;;;;;5072218;28;19963;-74
2022/06/08 04:43:12;;;;;;;;;;;15.00;99.90;;;;;;5073735;28;19912;-74
2022/06/08 04:45:38;;;;;;;;;;;15.10;99.90;;;;;;5049150;28;19931;-73
2022/06/08 04:48:04;;;;;;;;;;;15.10;99.90;;;;;;4935917;28;19916;-72
2022/06/08 04:50:30;;;;;;;;;;;15.20;99.90;;;;;;4932390;28;19964;-74
2022/06/08 04:52:56;;;;;;;;;;;15.30;99.90;;;;;;4952082;28;21519;-73
2022/06/08 04:55:22;;;;;;;;;;;15.40;99.90;;;;;;4952882;28;20037;-75
2022/06/08 04:57:48;;;;;;;;;;;15.40;99.90;;;;;;4954436;28;19924;-75
2022/06/08 05:00:17;;;;;;;;;;;15.50;99.90;;;;;;4953602;28;19928;-74
2022/06/08 05:02:43;;;;;;;;;;;15.60;99.90;;;;;;4956084;28;19917;-74
2022/06/08 05:05:14;;;;;;;;;;;15.60;99.90;;;;;;4939854;28;19978;-73
2022/06/08 05:07:40;;;;;;;;;;;15.60;99.90;;;;;;4954679;28;19917;-74
2022/06/08 05:10:06;;;;;;;;;;;15.70;99.90;;;;;;4953353;28;20023;-74
2022/06/08 05:12:32;;;;;;;;;;;15.70;99.90;;;;;;4953776;28;20231;-73
2022/06/08 05:14:58;;;;;;;;;;;15.70;99.90;;;;;;4951311;28;20033;-73
2022/06/08 05:17:24;;;;;;;;;;;15.80;99.90;;;;;;4950974;28;20548;-73
2022/06/08 05:19:50;;;;;;;;;;;15.80;99.90;;;;;;4952571;28;20591;-73
2022/06/08 05:22:15;;;;;;;;;;;15.80;99.90;;;;;;4935469;28;19952;-73
2022/06/08 05:24:41;;;;;;;;;;;15.90;99.90;;;;;;4953687;28;20024;-73
2022/06/08 05:27:06;;;;;;;;;;;15.90;99.90;;;;;;4954684;28;19916;-74
2022/06/08 05:29:32;;;;;;;;;;;15.90;99.90;;;;;;4938733;28;19963;-75
2022/06/08 05:31:58;;;;;;;;;;;16.00;99.90;;;;;;4953194;28;19921;-73
2022/06/08 05:34:24;;;;;;;;;;;15.90;99.90;;;;;;4939661;28;19925;-73
2022/06/08 05:36:49;;;;;;;;;;;15.90;99.90;;;;;;4954093;28;20089;-74
2022/06/08 05:39:15;;;;;;;;;;;15.90;99.90;;;;;;4957710;28;19916;-74
2022/06/08 05:41:41;;;;;;;;;;;15.90;99.90;;;;;;4940103;28;19928;-74
2022/06/08 05:44:06;;;;;;;;;;;15.90;99.90;;;;;;4936924;28;19956;-74
2022/06/08 05:46:32;;;;;;;;;;;15.90;99.90;;;;;;5018428;28;20239;-74
2022/06/08 05:48:58;;;;;;;;;;;16.00;99.90;;;;;;5062288;28;19917;-73
2022/06/08 05:51:23;;;;;;;;;;;16.00;99.90;;;;;;5043568;28;20251;-75
2022/06/08 05:53:49;;;;;;;;;;;16.00;99.90;;;;;;5059838;28;19963;-73
2022/06/08 05:56:14;;;;;;;;;;;16.10;99.90;;;;;;5056727;28;19928;-75
2022/06/08 05:58:40;;;;;;;;;;;16.20;99.90;;;;;;5056821;28;19916;-74
2022/06/08 06:01:05;;;;;;;;;;;16.20;99.90;;;;;;5056619;28;20230;-74
2022/06/08 06:03:31;;;;;;;;;;;16.30;99.90;;;;;;5055959;28;19942;-74
2022/06/08 06:05:57;;;;;;;;;;;16.40;99.90;;;;;;5060401;28;19909;-75
2022/06/08 06:08:23;;;;;;;;;;;16.40;99.90;;;;;;5041884;28;19916;-74
2022/06/08 06:10:49;;;;;;;;;;;16.60;99.90;;;;;;5042839;28;19912;-75
2022/06/08 06:13:15;;;;;;;;;;;16.60;99.90;;;;;;5060637;28;19917;-76
2022/06/08 06:15:41;;;;;;;;;;;16.80;99.90;;;;;;5056363;28;20047;-74
2022/06/08 06:18:06;;;;;;;;;;;16.90;99.90;;;;;;5064398;28;20300;-74
2022/06/08 06:20:32;;;;;;;;;;;17.00;99.90;;;;;;5039678;28;19912;-76
2022/06/08 06:22:58;;;;;;;;;;;17.10;99.90;;;;;;5054158;28;20007;-74
2022/06/08 06:25:24;;;;;;;;;;;17.20;99.90;;;;;;5071152;28;20303;-75
2022/06/08 06:27:50;;;;;;;;;;;17.40;99.90;;;;;;5076576;28;19951;-74
2022/06/08 06:30:16;;;;;;;;;;;17.40;99.90;;;;;;5076845;28;19955;-75
2022/06/08 06:32:43;;;;;;;;;;;17.40;99.90;;;;;;5077155;28;19908;-75
2022/06/08 06:35:15;;;;;;;;;;;17.50;99.90;;;;;;5076332;28;19999;-75
2022/06/08 06:37:40;;;;;;;;;;;17.60;99.90;;;;;;5063376;28;19921;-74
2022/06/08 06:40:07;;;;;;;;;;;17.50;99.90;;;;;;5056763;28;19909;-74
2022/06/08 06:42:33;;;;;;;;;;;17.40;99.90;;;;;;5062298;28;20008;-74
2022/06/08 06:44:59;;;;;;;;;;;17.30;99.90;;;;;;5067298;28;19931;-75
2022/06/08 06:47:25;;;;;;;;;;;17.20;99.90;;;;;;5075446;28;19916;-75
2022/06/08 06:49:51;;;;;;;;;;;17.20;99.90;;;;;;5073291;28;19917;-75
2022/06/08 06:52:18;;;;;;;;;;;17.20;99.90;;;;;;5072250;28;19919;-73
2022/06/08 06:54:43;;;;;;;;;;;17.20;99.90;;;;;;5073946;28;19916;-74
2022/06/08 06:57:09;;;;;;;;;;;17.20;99.90;;;;;;5060402;28;20281;-74
2022/06/08 06:59:35;;;;;;;;;;;17.20;99.90;;;;;;5073300;28;19919;-75
2022/06/08 07:02:01;;;;;;;;;;;17.30;99.90;;;;;;5058120;28;19923;-75
2022/06/08 07:04:26;;;;;;;;;;;17.30;99.90;;;;;;5058217;28;20012;-76
2022/06/08 07:06:53;;;;;;;;;;;17.50;99.90;;;;;;5075436;28;19956;-75
2022/06/08 07:09:19;;;;;;;;;;;17.60;99.90;;;;;;5074996;28;19908;-74
2022/06/08 07:11:45;;;;;;;;;;;17.70;99.90;;;;;;5074900;28;19920;-75
2022/06/08 07:14:18;;;;;;;;;;;17.90;99.90;;;;;;5075313;28;19916;-75
2022/06/08 07:16:45;;;;;;;;;;;18.00;99.90;;;;;;5076351;28;19913;-75
2022/06/08 07:19:11;;;;;;;;;;;18.00;99.90;;;;;;5075124;28;19923;-75
2022/06/08 07:21:37;;;;;;;;;;;18.10;99.90;;;;;;5076463;28;19913;-75
2022/06/08 07:24:03;;;;;;;;;;;18.20;99.90;;;;;;5057132;28;20571;-74
2022/06/08 07:26:28;;;;;;;;;;;18.20;99.90;;;;;;5059173;28;20023;-75
2022/06/08 07:28:55;;;;;;;;;;;18.10;99.90;;;;;;4970325;28;19947;-75
2022/06/08 07:31:21;;;;;;;;;;;18.10;99.90;;;;;;4952371;28;20335;-74
2022/06/08 07:33:46;;;;;;;;;;;18.10;99.90;;;;;;4950040;28;20015;-74
2022/06/08 07:36:12;;;;;;;;;;;18.10;99.90;;;;;;4932174;28;20637;-74
2022/06/08 07:38:38;;;;;;;;;;;18.30;99.90;;;;;;4951533;28;20548;-75
2022/06/08 07:41:03;;;;;;;;;;;18.50;99.90;;;;;;4948060;28;19920;-74
2022/06/08 07:43:29;;;;;;;;;;;18.70;99.90;;;;;;4950452;28;20303;-75
2022/06/08 07:45:55;;;;;;;;;;;18.90;99.90;;;;;;4951134;28;19917;-74
2022/06/08 07:51:05;;;;;;;;;;;19.20;99.90;;;;;;4950650;28;19924;-74
2022/06/08 07:53:30;;;;;;;;;;;19.60;99.90;;;;;;4951414;28;19916;-74
2022/06/08 07:55:56;;;;;;;;;;;20.00;99.90;;;;;;4928282;28;19925;-73
2022/06/08 07:58:22;;;;;;;;;;;20.20;99.90;;;;;;4921863;28;20547;-74
2022/06/08 08:00:47;;;;;;;;;;;20.30;99.90;;;;;;4926075;28;23892;-72
2022/06/08 08:03:14;;;;;;;;;;;20.50;99.90;;;;;;4926002;28;19920;-75
2022/06/08 08:05:40;;;;;;;;;;;20.70;99.90;;;;;;4928561;28;19952;-75
2022/06/08 08:08:06;;;;;;;;;;;20.80;99.90;;;;;;4929479;28;21424;-74
2022/06/08 08:10:32;;;;;;;;;;;20.90;99.90;;;;;;4911580;28;20046;-75
2022/06/08 08:12:57;;;;;;;;;;;21.10;99.90;;;;;;4926847;28;19917;-74
2022/06/08 08:15:24;;;;;;;;;;;21.20;99.90;;;;;;4929555;28;19917;-74
2022/06/08 08:17:50;;;;;;;;;;;21.20;99.90;;;;;;4926514;28;20320;-74
2022/06/08 08:20:16;;;;;;;;;;;21.30;99.90;;;;;;4926651;28;19917;-74
2022/06/08 08:22:42;;;;;;;;;;;21.30;99.90;;;;;;4929080;28;21188;-75
2022/06/08 08:25:09;;;;;;;;;;;21.20;99.90;;;;;;4931851;28;20613;-73
2022/06/08 08:27:35;;;;;;;;;;;21.00;99.90;;;;;;4930547;28;19916;-74
2022/06/08 08:30:01;;;;;;;;;;;20.80;99.90;;;;;;4926237;28;19924;-74
2022/06/08 08:32:26;;;;;;;;;;;20.60;99.90;;;;;;4929171;28;19971;-74
2022/06/08 08:34:52;;;;;;;;;;;20.60;99.90;;;;;;4930615;28;19924;-74
2022/06/08 08:37:17;;;;;;;;;;;20.70;99.90;;;;;;4926052;28;19925;-74
2022/06/08 08:39:43;;;;;;;;;;;20.70;99.90;;;;;;4928042;28;19923;-74
2022/06/08 08:42:21;;;;;;;;;;;20.60;99.90;;;;;;4930205;28;19917;-74
2022/06/08 08:44:49;;;;;;;;;;;20.60;99.90;;;;;;4928592;28;20846;-74
2022/06/08 08:47:15;;;;;;;;;;;20.60;99.90;;;;;;4930484;28;20686;-76
2022/06/08 08:49:45;;;;;;;;;;;20.70;99.90;;;;;;4908505;28;24157;-73
2022/06/08 08:52:14;;;;;;;;;;;20.70;99.90;;;;;;4933113;28;19924;-76
2022/06/08 08:54:45;;;;;;;;;;;20.80;99.90;;;;;;5043709;28;19924;-74
2022/06/08 08:57:10;;;;;;;;;;;20.90;99.90;;;;;;5054563;28;19924;-75
2022/06/08 08:59:36;;;;;;;;;;;21.00;99.90;;;;;;4960647;28;19921;-73
2022/06/08 09:02:01;;;;;;;;;;;21.20;99.90;;;;;;4915227;28;20054;-74
2022/06/08 09:04:28;;;;;;;;;;;21.50;99.90;;;;;;4929186;28;19932;-75
2022/06/08 09:06:54;;;;;;;;;;;21.70;99.90;;;;;;4927435;28;20536;-74
2022/06/08 09:09:23;;;;;;;;;;;21.60;99.90;;;;;;4928892;28;19917;-74
2022/06/08 09:11:48;;;;;;;;;;;21.70;99.90;;;;;;4930147;28;19917;-75
2022/06/08 09:14:17;;;;;;;;;;;21.70;99.90;;;;;;4928594;28;19924;-74
2022/06/08 09:16:45;;;;;;;;;;;21.70;99.90;;;;;;4931801;28;19995;-74
2022/06/08 09:19:29;;;;;;;;;;;21.90;99.90;;;;;;4933369;28;20275;-75
2022/06/08 09:22:14;;;;;;;;;;;21.70;99.90;;;;;;4931943;28;20055;-74
2022/06/08 09:24:41;;;;;;;;;;;21.60;99.90;;;;;;4915037;28;19917;-74
2022/06/08 09:27:36;;;;;;;;;;;21.60;99.90;;;;;;4913827;28;19936;-74
2022/06/08 09:30:08;;;;;;;;;;;21.70;99.90;;;;;;4932048;28;19917;-74
2022/06/08 09:32:40;;;;;;;;;;;22.00;99.90;;;;;;4927206;28;19921;-75
2022/06/08 09:35:06;;;;;;;;;;;22.50;99.90;;;;;;4932290;28;20035;-74
2022/06/08 09:37:32;;;;;;;;;;;22.50;99.90;;;;;;4926660;28;23757;-75
2022/06/08 09:39:59;;;;;;;;;;;22.60;99.90;;;;;;4928140;28;20081;-75
2022/06/08 09:42:52;;;;;;;;;;;22.60;99.90;;;;;;4934785;28;20047;-74
2022/06/08 09:45:29;;;;;;;;;;;22.70;99.90;;;;;;4929903;28;20879;-75
2022/06/08 09:53:51;;;;;;;;;;;22.70;99.90;;;;;;4925834;28;20629;-75
2022/06/08 09:56:24;;;;;;;;;;;22.70;99.90;;;;;;4936200;28;20651;-75
2022/06/08 09:59:11;;;;;;;;;;;22.60;99.90;;;;;;4907658;28;19925;-75
2022/06/08 10:01:57;;;;;;;;;;;22.50;99.90;;;;;;4914001;28;20380;-74
2022/06/08 10:04:41;;;;;;;;;;;22.20;99.90;;;;;;4916399;28;20898;-75
2022/06/08 10:07:12;;;;;;;;;;;22.00;99.90;;;;;;4930343;28;19924;-75
2022/06/08 10:09:58;;;;;;;;;;;21.90;99.90;;;;;;4932096;28;19921;-75
2022/06/08 10:12:26;;;;;;;;;;;21.70;99.90;;;;;;4959570;28;19917;-75
2022/06/08 10:15:01;;;;;;;;;;;21.60;99.90;;;;;;4955845;28;19947;-74
2022/06/08 10:17:33;;;;;;;;;;;21.50;99.90;;;;;;4958152;28;19925;-75
2022/06/08 10:20:11;;;;;;;;;;;21.40;99.90;;;;;;4936938;28;19917;-75
2022/06/08 10:22:49;;;;;;;;;;;21.20;99.90;;;;;;4935529;28;19944;-75
2022/06/08 10:25:33;;;;;;;;;;;20.90;99.90;;;;;;4937786;28;20199;-76
2022/06/08 10:28:02;;;;;;;;;;;20.70;99.90;;;;;;4933756;28;20437;-75
2022/06/08 10:30:38;;;;;;;;;;;20.70;99.90;;;;;;4929111;28;20324;-75
2022/06/08 10:33:13;;;;;;;;;;;20.70;99.90;;;;;;4947683;28;19943;-76
2022/06/08 10:35:44;;;;;;;;;;;20.60;99.90;;;;;;4958843;28;19936;-76
2022/06/08 10:38:17;;;;;;;;;;;20.60;99.90;;;;;;4929268;28;19924;-75
2022/06/08 10:40:50;;;;;;;;;;;20.50;99.90;;;;;;4911735;28;19927;-77
2022/06/08 10:43:34;;;;;;;;;;;20.50;99.90;;;;;;4920621;28;19924;-75
2022/06/08 10:46:01;;;;;;;;;;;20.30;99.90;;;;;;4931980;28;19917;-75
2022/06/08 10:48:33;;;;;;;;;;;20.30;99.90;;;;;;4929860;28;20006;-78
2022/06/08 10:51:11;;;;;;;;;;;20.10;99.90;;;;;;4929716;28;19923;-75
2022/06/08 10:56:28;;;;;;;;;;;20.00;99.90;;;;;;4927490;28;20280;-77
2022/06/08 10:59:03;;;;;;;;;;;19.90;99.90;;;;;;4925282;28;20720;-75
2022/06/08 11:01:41;;;;;;;;;;;19.60;99.90;;;;;;4928640;28;19922;-76
2022/06/08 11:04:29;;;;;;;;;;;19.40;99.90;;;;;;4926867;28;19927;-76
2022/06/08 11:06:58;;;;;;;;;;;19.30;99.90;;;;;;4909744;28;19917;-75
2022/06/08 11:09:33;;;;;;;;;;;19.10;99.90;;;;;;4917447;28;19921;-74
2022/06/08 11:12:04;;;;;;;;;;;18.80;99.90;;;;;;4928064;28;20055;-74
2022/06/08 11:14:48;;;;;;;;;;;18.60;99.90;;;;;;4920716;28;21592;-75
2022/06/08 11:17:22;;;;;;;;;;;18.40;99.90;;;;;;4923163;28;20248;-74
2022/06/08 11:19:49;;;;;;;;;;;18.20;99.90;;;;;;4926513;28;21331;-73
2022/06/08 11:22:26;;;;;;;;;;;18.10;99.90;;;;;;4944099;28;24258;-74
2022/06/08 11:24:54;;;;;;;;;;;18.00;99.90;;;;;;4926955;28;19923;-74
2022/06/08 11:27:46;;;;;;;;;;;17.80;99.90;;;;;;4926194;28;19940;-73
2022/06/08 11:30:21;;;;;;;;;;;17.60;99.90;;;;;;4907630;28;19923;-72
2022/06/08 11:32:52;;;;;;;;;;;17.50;99.90;;;;;;4927001;28;19928;-72
2022/06/08 11:35:30;;;;;;;;;;;17.40;99.90;;;;;;4925461;28;20002;-73
2022/06/08 11:38:16;;;;;;;;;;;17.30;99.90;;;;;;4924480;28;19974;-73
2022/06/08 11:40:42;;;;;;;;;;;17.30;99.90;;;;;;4925241;28;19927;-72
2022/06/08 11:43:10;;;;;;;;;;;17.20;99.90;;;;;;4922292;28;19921;-72
2022/06/08 11:45:39;;;;;;;;;;;17.30;99.90;;;;;;4925296;28;20323;-72
2022/06/08 11:48:13;;;;;;;;;;;17.10;99.90;;;;;;4926941;28;19946;-73
2022/06/08 11:50:50;;;;;;;;;;;17.10;99.90;;;;;;4919249;28;20342;-71
2022/06/08 11:53:24;;;;;;;;;;;17.10;99.90;;;;;;4921287;28;19925;-73
2022/06/08 11:56:13;;;;;;;;;;;17.10;99.90;;;;;;4911097;28;19932;-70
2022/06/08 11:58:42;;;;;;;;;;;17.10;99.90;;;;;;4933495;28;20208;-74
2022/06/08 12:01:09;;;;;;;;;;;17.10;99.90;;;;;;4943928;28;20327;-73
2022/06/08 12:03:34;;;;;;;;;;;17.10;99.90;;;;;;4932102;28;21595;-71
2022/06/08 12:06:07;;;;;;;;;;;17.10;99.90;;;;;;4940064;28;20045;-73
2022/06/08 12:08:38;;;;;;;;;;;17.10;99.90;;;;;;4929662;28;20277;-74
2022/06/08 12:11:04;;;;;;;;;;;17.10;99.90;;;;;;4929534;28;19916;-72
2022/06/08 12:13:31;;;;;;;;;;;17.00;99.90;;;;;;4940022;28;19920;-71
2022/06/08 12:16:01;;;;;;;;;;;17.00;99.90;;;;;;4943476;28;20016;-70
2022/06/08 12:18:28;;;;;;;;;;;17.00;99.90;;;;;;4943063;28;19971;-71
2022/06/08 12:21:03;;;;;;;;;;;16.90;99.90;;;;;;4936258;28;19917;-71
2022/06/08 12:23:35;;;;;;;;;;;16.90;99.90;;;;;;4947269;28;19924;-71
2022/06/08 12:26:01;;;;;;;;;;;16.90;99.90;;;;;;4931012;28;20657;-71
2022/06/08 12:28:27;;;;;;;;;;;16.90;99.90;;;;;;4943031;28;19917;-71
2022/06/08 12:30:55;;;;;;;;;;;16.80;99.90;;;;;;4920739;28;19921;-73
2022/06/08 12:33:25;;;;;;;;;;;16.80;99.90;;;;;;4932922;28;20631;-70
2022/06/08 12:36:09;;;;;;;;;;;16.70;99.90;;;;;;4944341;28;20737;-71
2022/06/08 12:38:39;;;;;;;;;;;16.60;99.90;;;;;;4938670;28;19924;-70
2022/06/08 12:41:14;;;;;;;;;;;16.60;99.90;;;;;;4937461;28;19916;-70
2022/06/08 12:43:48;;;;;;;;;;;16.60;99.90;;;;;;4952362;28;20755;-70
2022/06/08 12:46:14;;;;;;;;;;;16.60;99.90;;;;;;4943193;28;19954;-71
2022/06/08 12:48:39;;;;;;;;;;;16.60;99.90;;;;;;4935065;28;20753;-71
2022/06/08 12:51:21;;;;;;;;;;;16.70;99.90;;;;;;4968495;28;20711;-71
2022/06/08 12:53:46;;;;;;;;;;;16.70;99.90;;;;;;4968571;28;19917;-70
2022/06/08 12:56:12;;;;;;;;;;;16.70;99.90;;;;;;4965984;28;20010;-70
2022/06/08 12:58:37;;;;;;;;;;;16.70;99.90;;;;;;4964191;28;20032;-71
2022/06/08 13:01:03;;;;;;;;;;;16.70;99.90;;;;;;4960946;28;19974;-70
2022/06/08 13:03:29;;;;;;;;;;;16.80;99.90;;;;;;4961397;28;20846;-73
2022/06/08 13:05:55;;;;;;;;;;;16.80;99.90;;;;;;4959068;28;19936;-70
2022/06/08 13:08:23;;;;;;;;;;;16.80;99.90;;;;;;4962379;28;20015;-73
2022/06/08 13:10:50;;;;;;;;;;;17.00;99.90;;;;;;4961008;28;19954;-71
2022/06/08 13:13:20;;;;;;;;;;;17.00;99.90;;;;;;4967711;28;20002;-71
2022/06/08 13:15:47;;;;;;;;;;;17.00;99.90;;;;;;4951806;28;20853;-71
2022/06/08 13:18:18;;;;;;;;;;;17.00;99.90;;;;;;4965194;28;20607;-70
2022/06/08 13:20:44;;;;;;;;;;;16.90;99.90;;;;;;4943250;28;20518;-71
2022/06/08 13:23:10;;;;;;;;;;;16.90;99.90;;;;;;4943430;28;19923;-71
2022/06/08 13:25:36;;;;;;;;;;;16.90;99.90;;;;;;4960379;28;19916;-74
2022/06/08 13:28:09;;;;;;;;;;;16.90;99.90;;;;;;4951583;28;20542;-74
2022/06/08 13:30:37;;;;;;;;;;;16.80;99.90;;;;;;4944954;28;21452;-71
2022/06/08 13:33:02;;;;;;;;;;;16.70;99.90;;;;;;4063044;28;10000961;-71
2022/06/08 13:35:30;;;;;;;;;;;16.60;99.90;;;;;;4929252;28;20022;-71
2022/06/08 13:37:56;;;;;;;;;;;16.70;99.90;;;;;;4932471;28;19924;-72
2022/06/08 13:40:24;;;;;;;;;;;16.70;99.90;;;;;;4915285;28;20312;-71
2022/06/08 13:42:51;;;;;;;;;;;16.70;99.90;;;;;;4915267;28;20378;-72
2022/06/08 13:45:23;;;;;;;;;;;16.60;99.90;;;;;;4933045;28;19939;-71
2022/06/08 13:47:53;;;;;;;;;;;16.70;99.90;;;;;;4933445;28;19936;-72
2022/06/08 13:50:22;;;;;;;;;;;16.70;99.90;;;;;;4933367;28;19916;-74
2022/06/08 13:52:50;;;;;;;;;;;16.60;99.90;;;;;;4929905;28;21609;-74
2022/06/08 13:55:23;;;;;;;;;;;16.60;99.90;;;;;;4932051;28;19921;-70
2022/06/08 13:57:51;;;;;;;;;;;16.70;99.90;;;;;;4910884;28;19940;-72
2022/06/08 14:00:17;;;;;;;;;;;16.60;99.90;;;;;;4909724;28;19925;-75
2022/06/08 14:02:44;;;;;;;;;;;16.60;99.90;;;;;;4909691;28;20019;-74
2022/06/08 14:05:12;;;;;;;;;;;16.60;99.90;;;;;;4910953;28;19945;-74
2022/06/08 14:13:21;;;;;;;;;;;16.60;99.90;;;;;;4913915;28;19939;-74
2022/06/08 14:15:48;;;;;;;;;;;16.50;99.90;;;;;;4901689;28;20484;-71
2022/06/08 14:18:18;;;;;;;;;;;16.50;99.90;;;;;;4908827;28;19964;-73
2022/06/08 14:20:45;;;;;;;;;;;16.50;99.90;;;;;;4910472;28;19918;-71
2022/06/08 14:23:12;;;;;;;;;;;16.50;99.90;;;;;;4909719;28;20327;-73
2022/06/08 14:25:38;;;;;;;;;;;16.50;99.90;;;;;;4906735;28;20691;-71
2022/06/08 14:28:04;;;;;;;;;;;16.50;99.90;;;;;;4889917;28;20536;-73
2022/06/08 14:30:29;;;;;;;;;;;16.60;99.90;;;;;;4908650;28;20352;-73
2022/06/08 14:32:57;;;;;;;;;;;16.70;99.90;;;;;;4910186;28;19928;-72
2022/06/08 14:35:29;;;;;;;;;;;16.80;99.90;;;;;;4912086;28;20766;-72
2022/06/08 14:37:55;;;;;;;;;;;16.80;99.90;;;;;;4908636;28;19926;-73
2022/06/08 14:40:23;;;;;;;;;;;16.80;99.90;;;;;;4910078;28;21258;-72
2022/06/08 14:42:48;;;;;;;;;;;16.70;99.90;;;;;;4904801;28;19918;-72
2022/06/08 14:45:14;;;;;;;;;;;16.70;99.90;;;;;;4891939;28;19917;-72